sensor_id;sensor_type;location;lat;lon;timestamp;pressure;altitude;pressure_sealevel;temperature;humidity
30081;BME280;16902;50.816;12.828;2023-02-16T00:00:39;98587.28;;;3.14;100.00
30081;BME280;16902;50.816;12.828;2023-02-16T00:05:41;98585.13;;;3.21;100.00
30081;BME280;16902;50.816;12.828;2023-02-16T00:10:44;98593.78;;;3.31;100.00
30081;BME280;16902;50.816;12.828;2023-02-16T00:16:14;98597.66;;;3.48;100.00
30081;BME280;16902;50.816;12.828;2023-02-16T00:21:17;98602.34;;;3.43;100.00
30081;BME280;16902;50.816;12.828;2023-02-16T00:26:24;98597.53;;;3.27;100.00
30081;BME280;16902;50.816;12.828;2023-02-16T00:31:28;98591.41;;;3.17;100.00
30081;BME280;16902;50.816;12.828;2023-02-16T00:36:33;98589.84;;;3.03;100.00
30081;BME280;16902;50.816;12.828;2023-02-16T00:41:35;98583.56;;;2.83;100.00
30081;BME280;16902;50.816;12.828;2023-02-16T00:46:52;98589.16;;;2.53;100.00
30081;BME280;16902;50.816;12.828;2023-02-16T00:51:55;98584.00;;;2.29;100.00
30081;BME280;16902;50.816;12.828;2023-02-16T00:56:57;98589.19;;;2.40;100.00
30081;BME280;16902;50.816;12.828;2023-02-16T01:01:59;98582.75;;;2.58;100.00
30081;BME280;16902;50.816;12.828;2023-02-16T01:07:01;98573.00;;;2.75;100.00
30081;BME280;16902;50.816;12.828;2023-02-16T01:12:42;98567.84;;;2.99;100.00
30081;BME280;16902;50.816;12.828;2023-02-16T01:17:44;98562.03;;;3.08;100.00
30081;BME280;16902;50.816;12.828;2023-02-16T01:22:45;98559.94;;;3.13;100.00
30081;BME280;16902;50.816;12.828;2023-02-16T01:27:48;98567.66;;;3.13;100.00
30081;BME280;16902;50.816;12.828;2023-02-16T01:32:51;98565.28;;;2.99;100.00
30081;BME280;16902;50.816;12.828;2023-02-16T01:37:53;98554.94;;;2.88;100.00
30081;BME280;16902;50.816;12.828;2023-02-16T01:43:21;98555.16;;;2.84;100.00
30081;BME280;16902;50.816;12.828;2023-02-16T01:48:25;98546.75;;;2.82;100.00
30081;BME280;16902;50.816;12.828;2023-02-16T01:53:31;98548.97;;;2.76;100.00
30081;BME280;16902;50.816;12.828;2023-02-16T01:58:42;98556.34;;;2.56;100.00
30081;BME280;16902;50.816;12.828;2023-02-16T02:03:46;98549.88;;;2.51;100.00
30081;BME280;16902;50.816;12.828;2023-02-16T02:14:38;98555.31;;;2.22;100.00
30081;BME280;16902;50.816;12.828;2023-02-16T02:19:58;98550.47;;;2.30;100.00
30081;BME280;16902;50.816;12.828;2023-02-16T02:25:16;98546.91;;;2.20;100.00
30081;BME280;16902;50.816;12.828;2023-02-16T02:36:36;98548.97;;;2.28;100.00
30081;BME280;16902;50.816;12.828;2023-02-16T02:47:18;98544.38;;;2.68;100.00
30081;BME280;16902;50.816;12.828;2023-02-16T02:52:21;98551.91;;;2.82;100.00
30081;BME280;16902;50.816;12.828;2023-02-16T02:57:32;98550.75;;;2.87;100.00
30081;BME280;16902;50.816;12.828;2023-02-16T03:02:59;98549.59;;;2.91;100.00
30081;BME280;16902;50.816;12.828;2023-02-16T03:08:08;98549.84;;;2.99;100.00
30081;BME280;16902;50.816;12.828;2023-02-16T03:13:20;98551.50;;;3.00;100.00
30081;BME280;16902;50.816;12.828;2023-02-16T03:18:24;98540.47;;;2.87;100.00
30081;BME280;16902;50.816;12.828;2023-02-16T03:23:47;98551.25;;;2.68;100.00
30081;BME280;16902;50.816;12.828;2023-02-16T03:29:10;98556.72;;;2.63;100.00
30081;BME280;16902;50.816;12.828;2023-02-16T03:34:19;98563.13;;;2.57;100.00
30081;BME280;16902;50.816;12.828;2023-02-16T03:39:21;98552.25;;;2.54;100.00
30081;BME280;16902;50.816;12.828;2023-02-16T03:44:24;98554.94;;;2.52;100.00
30081;BME280;16902;50.816;12.828;2023-02-16T03:49:26;98560.28;;;2.49;100.00
30081;BME280;16902;50.816;12.828;2023-02-16T03:54:27;98554.94;;;2.52;100.00
30081;BME280;16902;50.816;12.828;2023-02-16T03:59:29;98551.63;;;2.50;100.00
30081;BME280;16902;50.816;12.828;2023-02-16T04:04:31;98551.13;;;2.45;100.00
30081;BME280;16902;50.816;12.828;2023-02-16T04:09:33;98553.38;;;2.26;100.00
30081;BME280;16902;50.816;12.828;2023-02-16T04:14:35;98546.19;;;1.82;100.00
30081;BME280;16902;50.816;12.828;2023-02-16T04:19:37;98539.66;;;1.26;100.00
30081;BME280;16902;50.816;12.828;2023-02-16T04:24:39;98544.75;;;1.01;100.00
30081;BME280;16902;50.816;12.828;2023-02-16T04:29:40;98538.50;;;0.92;100.00
30081;BME280;16902;50.816;12.828;2023-02-16T04:34:42;98532.16;;;1.36;100.00
30081;BME280;16902;50.816;12.828;2023-02-16T04:39:44;98534.72;;;1.62;100.00
30081;BME280;16902;50.816;12.828;2023-02-16T04:44:46;98533.56;;;1.78;100.00
30081;BME280;16902;50.816;12.828;2023-02-16T04:49:48;98534.16;;;1.82;100.00
30081;BME280;16902;50.816;12.828;2023-02-16T04:54:50;98538.59;;;1.80;100.00
30081;BME280;16902;50.816;12.828;2023-02-16T04:59:52;98542.91;;;1.79;100.00
30081;BME280;16902;50.816;12.828;2023-02-16T05:04:54;98545.06;;;1.86;100.00
30081;BME280;16902;50.816;12.828;2023-02-16T05:09:56;98541.25;;;1.91;100.00
30081;BME280;16902;50.816;12.828;2023-02-16T05:14:58;98541.31;;;2.02;100.00
30081;BME280;16902;50.816;12.828;2023-02-16T05:20:00;98554.25;;;2.01;100.00
30081;BME280;16902;50.816;12.828;2023-02-16T05:25:02;98558.09;;;1.95;100.00
30081;BME280;16902;50.816;12.828;2023-02-16T05:30:05;98558.38;;;2.03;100.00
30081;BME280;16902;50.816;12.828;2023-02-16T05:35:07;98550.44;;;2.06;100.00
30081;BME280;16902;50.816;12.828;2023-02-16T05:40:09;98550.34;;;2.08;100.00
30081;BME280;16902;50.816;12.828;2023-02-16T05:45:11;98542.97;;;2.03;100.00
30081;BME280;16902;50.816;12.828;2023-02-16T05:50:13;98548.94;;;2.04;100.00
30081;BME280;16902;50.816;12.828;2023-02-16T05:55:15;98558.59;;;2.00;100.00
30081;BME280;16902;50.816;12.828;2023-02-16T06:00:17;98549.81;;;2.03;100.00
30081;BME280;16902;50.816;12.828;2023-02-16T06:05:19;98552.50;;;2.01;100.00
30081;BME280;16902;50.816;12.828;2023-02-16T06:10:21;98547.00;;;1.95;100.00
30081;BME280;16902;50.816;12.828;2023-02-16T06:15:22;98551.72;;;1.88;100.00
30081;BME280;16902;50.816;12.828;2023-02-16T06:20:24;98553.06;;;1.81;100.00
30081;BME280;16902;50.816;12.828;2023-02-16T06:25:26;98544.34;;;1.71;100.00
30081;BME280;16902;50.816;12.828;2023-02-16T06:30:28;98545.50;;;1.67;100.00
30081;BME280;16902;50.816;12.828;2023-02-16T06:35:30;98545.19;;;1.71;100.00
30081;BME280;16902;50.816;12.828;2023-02-16T06:40:32;98548.75;;;1.69;100.00
30081;BME280;16902;50.816;12.828;2023-02-16T06:45:34;98559.13;;;1.67;100.00
30081;BME280;16902;50.816;12.828;2023-02-16T06:50:36;98559.13;;;1.54;100.00
30081;BME280;16902;50.816;12.828;2023-02-16T06:55:38;98564.25;;;1.54;100.00
30081;BME280;16902;50.816;12.828;2023-02-16T07:00:40;98563.97;;;1.59;100.00
30081;BME280;16902;50.816;12.828;2023-02-16T07:05:42;98568.38;;;1.70;100.00
30081;BME280;16902;50.816;12.828;2023-02-16T07:10:45;98565.41;;;1.89;100.00
30081;BME280;16902;50.816;12.828;2023-02-16T07:15:51;98565.22;;;2.16;100.00
30081;BME280;16902;50.816;12.828;2023-02-16T07:20:53;98563.91;;;2.47;100.00
30081;BME280;16902;50.816;12.828;2023-02-16T07:25:54;98554.38;;;2.60;100.00
30081;BME280;16902;50.816;12.828;2023-02-16T07:30:56;98559.56;;;2.71;100.00
30081;BME280;16902;50.816;12.828;2023-02-16T07:35:58;98564.63;;;2.84;100.00
30081;BME280;16902;50.816;12.828;2023-02-16T07:41:00;98562.47;;;3.02;100.00
30081;BME280;16902;50.816;12.828;2023-02-16T07:46:03;98568.84;;;3.20;100.00
30081;BME280;16902;50.816;12.828;2023-02-16T07:51:06;98567.13;;;3.43;100.00
30081;BME280;16902;50.816;12.828;2023-02-16T07:56:15;98563.44;;;3.58;100.00
30081;BME280;16902;50.816;12.828;2023-02-16T08:01:19;98554.41;;;3.75;100.00
30081;BME280;16902;50.816;12.828;2023-02-16T08:06:24;98565.88;;;3.94;100.00
30081;BME280;16902;50.816;12.828;2023-02-16T08:11:26;98563.53;;;4.13;100.00
30081;BME280;16902;50.816;12.828;2023-02-16T08:16:28;98563.00;;;4.42;100.00
30081;BME280;16902;50.816;12.828;2023-02-16T08:21:32;98561.78;;;4.57;100.00
30081;BME280;16902;50.816;12.828;2023-02-16T08:26:37;98557.31;;;4.70;100.00
30081;BME280;16902;50.816;12.828;2023-02-16T08:31:40;98554.44;;;4.84;100.00
30081;BME280;16902;50.816;12.828;2023-02-16T08:36:44;98560.25;;;5.19;100.00
30081;BME280;16902;50.816;12.828;2023-02-16T08:41:47;98553.50;;;5.27;100.00
30081;BME280;16902;50.816;12.828;2023-02-16T08:46:52;98555.00;;;5.30;100.00
30081;BME280;16902;50.816;12.828;2023-02-16T08:51:56;98553.00;;;5.33;100.00
30081;BME280;16902;50.816;12.828;2023-02-16T08:56:59;98550.72;;;5.40;100.00
30081;BME280;16902;50.816;12.828;2023-02-16T09:02:03;98555.38;;;5.46;100.00
30081;BME280;16902;50.816;12.828;2023-02-16T09:07:05;98553.91;;;5.53;100.00
30081;BME280;16902;50.816;12.828;2023-02-16T09:12:09;98547.84;;;5.64;100.00
30081;BME280;16902;50.816;12.828;2023-02-16T09:17:11;98558.38;;;5.72;100.00
30081;BME280;16902;50.816;12.828;2023-02-16T09:22:13;98557.44;;;5.83;100.00
30081;BME280;16902;50.816;12.828;2023-02-16T09:27:15;98561.53;;;6.06;100.00
30081;BME280;16902;50.816;12.828;2023-02-16T09:32:17;98563.78;;;6.40;100.00
30081;BME280;16902;50.816;12.828;2023-02-16T09:37:19;98565.03;;;6.65;100.00
30081;BME280;16902;50.816;12.828;2023-02-16T09:47:45;98570.03;;;7.34;100.00
30081;BME280;16902;50.816;12.828;2023-02-16T09:52:54;98578.53;;;7.27;100.00
30081;BME280;16902;50.816;12.828;2023-02-16T09:58:06;98582.97;;;7.44;100.00
30081;BME280;16902;50.816;12.828;2023-02-16T10:08:38;98569.81;;;7.75;100.00
30081;BME280;16902;50.816;12.828;2023-02-16T10:13:49;98574.56;;;7.89;100.00
30081;BME280;16902;50.816;12.828;2023-02-16T10:18:55;98562.13;;;8.20;100.00
30081;BME280;16902;50.816;12.828;2023-02-16T10:24:04;98564.81;;;8.28;100.00
30081;BME280;16902;50.816;12.828;2023-02-16T10:39:26;98562.13;;;8.65;100.00
30081;BME280;16902;50.816;12.828;2023-02-16T10:44:36;98546.63;;;8.91;100.00
30081;BME280;16902;50.816;12.828;2023-02-16T10:49:40;98547.84;;;9.23;100.00
30081;BME280;16902;50.816;12.828;2023-02-16T10:54:42;98546.44;;;9.55;100.00
30081;BME280;16902;50.816;12.828;2023-02-16T10:59:45;98542.34;;;9.78;100.00
30081;BME280;16902;50.816;12.828;2023-02-16T11:04:49;98540.59;;;9.87;100.00
30081;BME280;16902;50.816;12.828;2023-02-16T11:09:55;98533.88;;;10.85;100.00
30081;BME280;16902;50.816;12.828;2023-02-16T11:15:05;98531.31;;;11.73;100.00
30081;BME280;16902;50.816;12.828;2023-02-16T11:20:25;98538.53;;;12.19;100.00
30081;BME280;16902;50.816;12.828;2023-02-16T11:25:29;98524.47;;;12.74;100.00
30081;BME280;16902;50.816;12.828;2023-02-16T11:30:33;98530.44;;;13.87;100.00
30081;BME280;16902;50.816;12.828;2023-02-16T11:35:41;98519.16;;;13.05;100.00
30081;BME280;16902;50.816;12.828;2023-02-16T11:40:50;98505.19;;;12.29;100.00
30081;BME280;16902;50.816;12.828;2023-02-16T11:46:05;98509.34;;;12.07;100.00
30081;BME280;16902;50.816;12.828;2023-02-16T11:51:12;98511.66;;;12.02;100.00
30081;BME280;16902;50.816;12.828;2023-02-16T11:56:26;98507.84;;;12.67;100.00
30081;BME280;16902;50.816;12.828;2023-02-16T12:33:46;98474.94;;;11.64;100.00
30081;BME280;16902;50.816;12.828;2023-02-16T12:38:58;98479.91;;;12.52;100.00
30081;BME280;16902;50.816;12.828;2023-02-16T12:44:11;98477.38;;;12.36;100.00
30081;BME280;16902;50.816;12.828;2023-02-16T12:49:24;98479.47;;;12.41;100.00
30081;BME280;16902;50.816;12.828;2023-02-16T12:54:48;98478.16;;;13.05;100.00
30081;BME280;16902;50.816;12.828;2023-02-16T13:05:09;98466.22;;;15.76;90.36
30081;BME280;16902;50.816;12.828;2023-02-16T13:16:18;98459.69;;;15.03;89.52
30081;BME280;16902;50.816;12.828;2023-02-16T13:43:03;98461.50;;;15.30;81.83
30081;BME280;16902;50.816;12.828;2023-02-16T13:48:22;98457.44;;;16.04;79.82
30081;BME280;16902;50.816;12.828;2023-02-16T13:53:32;98462.78;;;16.37;74.63
30081;BME280;16902;50.816;12.828;2023-02-16T13:58:35;98459.06;;;14.73;84.31
30081;BME280;16902;50.816;12.828;2023-02-16T14:03:37;98461.53;;;12.15;100.00
30081;BME280;16902;50.816;12.828;2023-02-16T14:08:39;98449.34;;;10.88;100.00
30081;BME280;16902;50.816;12.828;2023-02-16T14:13:46;98447.56;;;10.39;100.00
30081;BME280;16902;50.816;12.828;2023-02-16T14:18:59;98446.09;;;10.28;100.00
30081;BME280;16902;50.816;12.828;2023-02-16T14:24:03;98441.72;;;10.37;100.00
30081;BME280;16902;50.816;12.828;2023-02-16T14:29:52;98459.72;;;10.22;100.00
30081;BME280;16902;50.816;12.828;2023-02-16T14:35:19;98457.16;;;9.72;100.00
30081;BME280;16902;50.816;12.828;2023-02-16T14:56:37;98465.28;;;9.69;100.00
30081;BME280;16902;50.816;12.828;2023-02-16T15:01:41;98456.53;;;9.78;100.00
30081;BME280;16902;50.816;12.828;2023-02-16T15:06:45;98462.06;;;9.83;100.00
30081;BME280;16902;50.816;12.828;2023-02-16T15:11:53;98462.06;;;9.83;100.00
30081;BME280;16902;50.816;12.828;2023-02-16T15:22:25;98460.66;;;9.55;100.00
30081;BME280;16902;50.816;12.828;2023-02-16T15:27:28;98449.34;;;9.30;100.00
30081;BME280;16902;50.816;12.828;2023-02-16T15:32:31;98455.28;;;8.96;100.00
30081;BME280;16902;50.816;12.828;2023-02-16T15:37:34;98443.41;;;8.67;100.00
30081;BME280;16902;50.816;12.828;2023-02-16T15:42:41;98448.59;;;8.49;100.00
30081;BME280;16902;50.816;12.828;2023-02-16T15:47:44;98448.06;;;8.28;100.00
30081;BME280;16902;50.816;12.828;2023-02-16T15:52:47;98443.16;;;8.07;100.00
30081;BME280;16902;50.816;12.828;2023-02-16T15:57:49;98445.34;;;7.84;100.00
30081;BME280;16902;50.816;12.828;2023-02-16T16:02:55;98436.88;;;7.64;100.00
30081;BME280;16902;50.816;12.828;2023-02-16T16:08:00;98444.84;;;7.43;100.00
30081;BME280;16902;50.816;12.828;2023-02-16T16:13:05;98440.97;;;7.30;100.00
30081;BME280;16902;50.816;12.828;2023-02-16T16:18:34;98432.03;;;7.14;100.00
30081;BME280;16902;50.816;12.828;2023-02-16T16:23:38;98431.53;;;7.01;100.00
30081;BME280;16902;50.816;12.828;2023-02-16T16:28:40;98449.69;;;6.91;100.00
30081;BME280;16902;50.816;12.828;2023-02-16T16:34:01;98444.94;;;6.77;100.00
30081;BME280;16902;50.816;12.828;2023-02-16T17:00:22;98424.94;;;6.40;100.00
30081;BME280;16902;50.816;12.828;2023-02-16T17:05:25;98427.78;;;6.37;100.00
30081;BME280;16902;50.816;12.828;2023-02-16T17:10:27;98432.28;;;6.35;100.00
30081;BME280;16902;50.816;12.828;2023-02-16T17:20:46;98434.19;;;6.33;100.00
30081;BME280;16902;50.816;12.828;2023-02-16T17:25:49;98450.25;;;6.27;100.00
30081;BME280;16902;50.816;12.828;2023-02-16T17:30:51;98445.63;;;6.21;100.00
30081;BME280;16902;50.816;12.828;2023-02-16T17:35:53;98449.16;;;6.20;100.00
30081;BME280;16902;50.816;12.828;2023-02-16T17:40:56;98449.56;;;6.06;100.00
30081;BME280;16902;50.816;12.828;2023-02-16T17:45:58;98450.34;;;5.97;100.00
30081;BME280;16902;50.816;12.828;2023-02-16T17:51:13;98457.25;;;5.86;100.00
30081;BME280;16902;50.816;12.828;2023-02-16T17:56:18;98457.78;;;5.80;100.00
30081;BME280;16902;50.816;12.828;2023-02-16T18:01:21;98471.13;;;5.85;100.00
30081;BME280;16902;50.816;12.828;2023-02-16T18:06:23;98475.31;;;5.86;100.00
30081;BME280;16902;50.816;12.828;2023-02-16T18:11:29;98484.09;;;5.95;100.00
30081;BME280;16902;50.816;12.828;2023-02-16T18:16:31;98488.16;;;5.98;100.00
30081;BME280;16902;50.816;12.828;2023-02-16T18:21:33;98470.22;;;5.96;100.00
30081;BME280;16902;50.816;12.828;2023-02-16T18:26:35;98464.50;;;5.92;100.00
30081;BME280;16902;50.816;12.828;2023-02-16T18:31:38;98458.09;;;5.97;100.00
30081;BME280;16902;50.816;12.828;2023-02-16T18:36:43;98447.94;;;6.05;100.00
30081;BME280;16902;50.816;12.828;2023-02-16T18:41:44;98461.69;;;6.15;100.00
30081;BME280;16902;50.816;12.828;2023-02-16T18:46:46;98463.97;;;6.18;100.00
30081;BME280;16902;50.816;12.828;2023-02-16T18:51:48;98473.81;;;6.24;100.00
30081;BME280;16902;50.816;12.828;2023-02-16T18:56:50;98476.00;;;6.29;100.00
30081;BME280;16902;50.816;12.828;2023-02-16T19:01:54;98470.81;;;6.29;100.00
30081;BME280;16902;50.816;12.828;2023-02-16T19:06:57;98483.59;;;6.30;100.00
30081;BME280;16902;50.816;12.828;2023-02-16T19:11:59;98480.88;;;6.32;100.00
30081;BME280;16902;50.816;12.828;2023-02-16T19:17:01;98464.94;;;6.36;100.00
30081;BME280;16902;50.816;12.828;2023-02-16T19:22:03;98455.00;;;6.41;100.00
30081;BME280;16902;50.816;12.828;2023-02-16T19:27:05;98450.81;;;6.50;100.00
30081;BME280;16902;50.816;12.828;2023-02-16T19:32:07;98452.16;;;6.54;100.00
30081;BME280;16902;50.816;12.828;2023-02-16T19:37:09;98456.78;;;6.51;100.00
30081;BME280;16902;50.816;12.828;2023-02-16T19:42:11;98445.06;;;6.27;100.00
30081;BME280;16902;50.816;12.828;2023-02-16T19:47:13;98455.78;;;6.03;100.00
30081;BME280;16902;50.816;12.828;2023-02-16T19:52:15;98462.31;;;5.98;100.00
30081;BME280;16902;50.816;12.828;2023-02-16T19:57:17;98450.06;;;5.90;100.00
30081;BME280;16902;50.816;12.828;2023-02-16T20:02:19;98445.44;;;5.93;100.00
30081;BME280;16902;50.816;12.828;2023-02-16T20:07:21;98434.84;;;5.97;100.00
30081;BME280;16902;50.816;12.828;2023-02-16T20:12:23;98432.25;;;5.97;100.00
30081;BME280;16902;50.816;12.828;2023-02-16T20:17:28;98422.09;;;6.05;100.00
30081;BME280;16902;50.816;12.828;2023-02-16T20:22:30;98423.03;;;6.23;100.00
30081;BME280;16902;50.816;12.828;2023-02-16T20:27:32;98415.16;;;6.34;100.00
30081;BME280;16902;50.816;12.828;2023-02-16T20:32:33;98414.59;;;6.50;100.00
30081;BME280;16902;50.816;12.828;2023-02-16T20:37:35;98415.66;;;6.57;100.00
30081;BME280;16902;50.816;12.828;2023-02-16T20:42:37;98406.38;;;6.74;100.00
30081;BME280;16902;50.816;12.828;2023-02-16T20:47:39;98402.66;;;6.86;100.00
30081;BME280;16902;50.816;12.828;2023-02-16T20:52:41;98393.53;;;6.92;100.00
30081;BME280;16902;50.816;12.828;2023-02-16T20:57:43;98404.13;;;6.99;100.00
30081;BME280;16902;50.816;12.828;2023-02-16T21:02:45;98397.03;;;7.01;100.00
30081;BME280;16902;50.816;12.828;2023-02-16T21:07:46;98394.19;;;7.04;100.00
30081;BME280;16902;50.816;12.828;2023-02-16T21:12:50;98390.75;;;7.13;100.00
30081;BME280;16902;50.816;12.828;2023-02-16T21:17:52;98387.88;;;7.16;100.00
30081;BME280;16902;50.816;12.828;2023-02-16T21:22:54;98386.81;;;7.09;100.00
30081;BME280;16902;50.816;12.828;2023-02-16T21:27:56;98391.31;;;7.07;100.00
30081;BME280;16902;50.816;12.828;2023-02-16T21:32:58;98380.22;;;7.14;100.00
30081;BME280;16902;50.816;12.828;2023-02-16T21:38:00;98368.63;;;7.18;100.00
30081;BME280;16902;50.816;12.828;2023-02-16T21:43:01;98352.81;;;7.21;100.00
30081;BME280;16902;50.816;12.828;2023-02-16T21:48:03;98353.69;;;7.12;100.00
30081;BME280;16902;50.816;12.828;2023-02-16T21:53:24;98363.34;;;7.10;100.00
30081;BME280;16902;50.816;12.828;2023-02-16T21:58:25;98350.28;;;7.12;100.00
30081;BME280;16902;50.816;12.828;2023-02-16T22:03:27;98343.47;;;7.11;100.00
30081;BME280;16902;50.816;12.828;2023-02-16T22:08:30;98341.00;;;7.09;100.00
30081;BME280;16902;50.816;12.828;2023-02-16T22:13:40;98332.84;;;7.04;100.00
30081;BME280;16902;50.816;12.828;2023-02-16T22:18:42;98337.50;;;7.01;100.00
30081;BME280;16902;50.816;12.828;2023-02-16T22:23:44;98334.34;;;7.07;100.00
30081;BME280;16902;50.816;12.828;2023-02-16T22:28:46;98324.00;;;7.07;100.00
30081;BME280;16902;50.816;12.828;2023-02-16T22:33:57;98318.50;;;7.10;100.00
30081;BME280;16902;50.816;12.828;2023-02-16T22:38:59;98316.63;;;7.12;100.00
30081;BME280;16902;50.816;12.828;2023-02-16T22:44:01;98305.72;;;7.08;100.00
30081;BME280;16902;50.816;12.828;2023-02-16T22:49:03;98299.88;;;7.06;100.00
30081;BME280;16902;50.816;12.828;2023-02-16T22:54:06;98296.19;;;7.09;100.00
30081;BME280;16902;50.816;12.828;2023-02-16T22:59:09;98294.44;;;7.27;100.00
30081;BME280;16902;50.816;12.828;2023-02-16T23:04:13;98284.47;;;7.32;100.00
30081;BME280;16902;50.816;12.828;2023-02-16T23:09:18;98274.47;;;7.37;100.00
30081;BME280;16902;50.816;12.828;2023-02-16T23:14:20;98274.03;;;7.42;100.00
30081;BME280;16902;50.816;12.828;2023-02-16T23:19:24;98278.50;;;7.50;100.00
30081;BME280;16902;50.816;12.828;2023-02-16T23:24:26;98289.59;;;7.60;100.00
30081;BME280;16902;50.816;12.828;2023-02-16T23:29:28;98284.09;;;7.63;100.00
30081;BME280;16902;50.816;12.828;2023-02-16T23:34:30;98277.97;;;7.64;100.00
30081;BME280;16902;50.816;12.828;2023-02-16T23:39:32;98283.97;;;7.64;100.00
30081;BME280;16902;50.816;12.828;2023-02-16T23:44:34;98287.00;;;7.60;100.00
30081;BME280;16902;50.816;12.828;2023-02-16T23:49:36;98278.88;;;7.55;100.00
30081;BME280;16902;50.816;12.828;2023-02-16T23:54:37;98273.44;;;7.48;100.00
30081;BME280;16902;50.816;12.828;2023-02-16T23:59:39;98273.22;;;7.41;100.00
